createdAt,value
2022-10-24T00:03:29.415Z,95.70
2022-10-24T00:08:28.732Z,105.80
2022-10-24T00:13:29.039Z,110.40
2022-10-24T00:18:28.311Z,128.60
2022-10-24T00:23:26.602Z,142.60
2022-10-24T00:28:26.886Z,132.20
2022-10-24T00:33:26.170Z,84.30
2022-10-24T00:38:24.443Z,68.40
2022-10-24T00:43:23.754Z,73.60
2022-10-24T00:48:24.035Z,68.50
2022-10-24T00:53:22.342Z,46.50
2022-10-24T00:58:21.703Z,62.30
2022-10-24T01:03:20.779Z,48.40
2022-10-24T01:08:20.092Z,51.40
2022-10-24T01:13:21.424Z,55.20
2022-10-24T01:18:18.729Z,31.30
2022-10-24T01:23:19.068Z,42.40
2022-10-24T01:28:19.378Z,40.90
2022-10-24T01:33:16.672Z,48.00
2022-10-24T01:38:15.998Z,45.20
2022-10-24T01:43:15.309Z,43.90
2022-10-24T01:48:15.484Z,37.90
2022-10-24T01:53:13.601Z,42.20
2022-10-24T01:58:13.924Z,31.80
2022-10-24T02:03:12.241Z,27.10
2022-10-24T02:08:11.545Z,28.60
2022-10-24T02:13:11.861Z,21.90
2022-10-24T02:18:10.195Z,20.00
2022-10-24T02:23:09.493Z,21.00
2022-10-24T02:28:08.806Z,23.80
2022-10-24T02:33:08.112Z,26.30
2022-10-24T02:38:09.427Z,25.70
2022-10-24T02:43:07.702Z,23.10
2022-10-24T02:48:06.979Z,23.20
2022-10-24T02:53:05.264Z,22.40
2022-10-24T02:58:06.565Z,20.90
2022-10-24T03:03:03.864Z,19.20
2022-10-24T03:08:03.188Z,20.30
2022-10-24T03:13:02.521Z,19.70
2022-10-24T03:18:01.648Z,17.50
2022-10-24T03:23:00.955Z,15.20
2022-10-24T03:28:00.277Z,14.50
2022-10-24T03:32:59.614Z,16.30
2022-10-24T03:37:58.967Z,13.70
2022-10-24T03:42:59.106Z,12.00
2022-10-24T03:47:58.434Z,13.10
2022-10-24T03:52:56.766Z,12.60
2022-10-24T03:57:57.111Z,12.50
2022-10-24T04:02:55.235Z,10.30
2022-10-24T04:07:54.566Z,11.10
2022-10-24T04:12:53.869Z,10.30
2022-10-24T04:17:53.205Z,9.10
2022-10-24T04:22:52.515Z,8.70
2022-10-24T04:27:51.811Z,9.10
2022-10-24T04:32:52.137Z,7.00
2022-10-24T04:37:50.434Z,6.90
2022-10-24T04:42:50.775Z,6.80
2022-10-24T04:47:49.089Z,7.80
2022-10-24T04:52:48.375Z,8.70
2022-10-24T04:57:47.812Z,8.70
2022-10-24T05:02:47.929Z,6.50
2022-10-24T05:07:47.306Z,8.40
2022-10-24T05:12:46.547Z,11.00
2022-10-24T05:17:44.661Z,8.00
2022-10-24T05:22:45.155Z,7.30
2022-10-24T05:27:44.221Z,6.00
2022-10-24T05:32:42.760Z,9.10
2022-10-24T05:37:41.713Z,8.10
2022-10-24T05:42:40.867Z,7.50
2022-10-24T05:47:39.986Z,6.40
2022-10-24T05:52:43.109Z,6.60
2022-10-24T05:57:38.501Z,6.90
2022-10-24T06:02:38.975Z,8.20
2022-10-24T06:07:38.147Z,6.00
2022-10-24T06:12:36.478Z,8.50
2022-10-24T06:17:35.785Z,8.90
2022-10-24T06:22:37.897Z,7.10
2022-10-24T06:27:34.408Z,7.60
2022-10-24T06:32:33.713Z,8.00
2022-10-24T06:37:33.020Z,4.80
2022-10-24T06:42:32.302Z,6.80
2022-10-24T06:47:32.613Z,6.10
2022-10-24T06:52:30.959Z,7.60
2022-10-24T06:57:30.115Z,10.10
2022-10-24T07:02:29.285Z,8.00
2022-10-24T07:07:28.420Z,8.90
2022-10-24T07:12:28.750Z,6.10
2022-10-24T07:17:27.064Z,9.10
2022-10-24T07:22:28.282Z,9.40
2022-10-24T07:27:26.549Z,8.10
2022-10-24T07:32:24.876Z,6.50
2022-10-24T07:42:23.443Z,9.10
2022-10-24T07:47:22.732Z,6.90
2022-10-24T07:52:22.034Z,8.60
2022-10-24T07:57:22.332Z,6.00
2022-10-24T08:02:20.623Z,6.10
2022-10-24T08:07:19.918Z,8.00
2022-10-24T08:12:19.241Z,6.70
2022-10-24T08:17:18.339Z,8.20
2022-10-24T08:22:18.660Z,9.10
2022-10-24T08:27:16.961Z,5.90
2022-10-24T08:32:16.276Z,8.30
2022-10-24T08:37:16.602Z,9.40
2022-10-24T08:42:14.794Z,7.60
2022-10-24T08:47:13.903Z,5.60
2022-10-24T08:52:14.054Z,9.20
2022-10-24T08:57:16.291Z,6.70
2022-10-24T09:02:13.785Z,5.10
2022-10-24T09:07:10.636Z,7.20
2022-10-24T09:12:09.957Z,4.90
2022-10-24T09:17:09.336Z,7.80
2022-10-24T09:22:08.456Z,9.40
2022-10-24T09:27:08.644Z,9.10
2022-10-24T09:32:06.757Z,6.10
2022-10-24T09:37:08.410Z,6.40
2022-10-24T09:42:04.338Z,6.60
2022-10-24T09:47:05.673Z,7.70
2022-10-24T09:52:04.019Z,7.20
2022-10-24T09:57:03.205Z,7.10
2022-10-24T10:02:02.434Z,9.50
2022-10-24T10:07:01.768Z,5.70
2022-10-24T10:12:03.823Z,6.60
2022-10-24T10:17:00.201Z,5.90
2022-10-24T10:21:58.349Z,6.90
2022-10-24T10:26:59.515Z,6.10
2022-10-24T10:31:57.816Z,6.10
2022-10-24T10:36:58.127Z,6.60
2022-10-24T10:46:56.679Z,6.70
2022-10-24T10:51:55.819Z,5.20
2022-10-24T10:56:53.150Z,5.40
2022-10-24T11:01:54.379Z,6.90
2022-10-24T11:06:55.559Z,4.50
2022-10-24T11:11:52.810Z,4.80
2022-10-24T11:16:52.135Z,4.30
2022-10-24T11:21:50.433Z,4.20
2022-10-24T11:26:50.742Z,4.60
2022-10-24T11:31:49.040Z,6.10
2022-10-24T11:36:52.011Z,5.00
2022-10-24T11:41:48.521Z,5.60
2022-10-24T11:46:46.671Z,3.10
2022-10-24T11:51:45.948Z,3.70
2022-10-24T11:56:47.232Z,4.10
2022-10-24T12:01:44.536Z,5.20
2022-10-24T12:06:43.845Z,4.60
2022-10-24T12:11:43.229Z,4.60
2022-10-24T12:16:42.310Z,3.20
2022-10-24T12:21:42.612Z,5.30
2022-10-24T12:26:40.918Z,1.40
2022-10-24T12:31:40.233Z,3.10
2022-10-24T12:36:40.555Z,3.40
2022-10-24T12:41:38.837Z,2.50
2022-10-24T12:46:39.152Z,3.70
2022-10-24T12:51:37.434Z,3.00
2022-10-24T12:56:36.725Z,3.20
2022-10-24T13:01:37.071Z,5.40
2022-10-24T13:06:36.338Z,3.20
2022-10-24T13:11:34.617Z,3.50
2022-10-24T13:16:34.964Z,2.50
2022-10-24T13:21:33.140Z,2.30
2022-10-24T13:26:33.253Z,2.40
2022-10-24T13:31:32.575Z,1.90
2022-10-24T13:36:30.890Z,2.70
2022-10-24T13:41:30.032Z,4.20
2022-10-24T13:46:29.411Z,1.80
2022-10-24T13:51:28.586Z,2.10
2022-10-24T13:56:27.728Z,1.40
2022-10-24T14:01:27.972Z,3.10
2022-10-24T14:06:27.135Z,2.10
2022-10-24T14:11:25.472Z,2.40
2022-10-24T14:16:24.786Z,1.90
2022-10-24T14:21:25.100Z,1.20
2022-10-24T14:26:24.421Z,1.40
2022-10-24T14:31:22.556Z,2.20
2022-10-24T14:36:21.692Z,1.00
2022-10-24T14:41:20.807Z,0.70
2022-10-24T14:46:24.847Z,0.90
2022-10-24T14:51:19.319Z,1.40
2022-10-24T14:56:19.435Z,2.10
2022-10-24T15:01:17.799Z,1.30
2022-10-24T15:06:17.988Z,1.00
2022-10-24T15:11:16.117Z,1.10
2022-10-24T15:16:15.466Z,1.50
2022-10-24T15:21:15.592Z,1.20
2022-10-24T15:26:13.903Z,1.00
2022-10-24T15:31:13.225Z,0.90
2022-10-24T15:36:13.556Z,0.90
2022-10-24T15:41:12.851Z,1.20
2022-10-24T15:46:12.183Z,2.00
2022-10-24T15:51:11.717Z,2.10
2022-10-24T15:56:10.677Z,1.80
2022-10-24T16:01:09.076Z,2.60
2022-10-24T16:06:08.180Z,2.70
2022-10-24T16:11:09.972Z,2.30
2022-10-24T16:16:06.932Z,2.20
2022-10-24T16:21:05.878Z,2.30
2022-10-24T16:26:06.220Z,2.40
2022-10-24T16:31:04.525Z,2.40
2022-10-24T16:36:04.078Z,4.20
2022-10-24T16:41:02.987Z,4.20
2022-10-24T16:46:02.266Z,5.60
2022-10-24T16:51:01.577Z,59.50
2022-10-24T16:56:02.178Z,234.80
2022-10-24T17:01:00.311Z,130.00
2022-10-24T17:05:59.421Z,171.60
2022-10-24T17:10:58.745Z,101.00
2022-10-24T17:15:57.941Z,111.80
2022-10-24T17:20:57.134Z,178.50
2022-10-24T17:25:57.921Z,158.60
2022-10-24T17:30:55.461Z,192.00
2022-10-24T17:35:54.839Z,292.80
2022-10-24T17:40:55.068Z,195.10
2022-10-24T17:45:54.330Z,105.10
2022-10-24T17:50:55.567Z,129.80
2022-10-24T17:55:51.797Z,128.80
2022-10-24T18:00:51.171Z,129.90
2022-10-24T18:05:52.285Z,113.10
2022-10-24T18:10:50.612Z,127.00
2022-10-24T18:15:48.557Z,87.10
2022-10-24T18:20:47.925Z,112.80
2022-10-24T18:25:47.436Z,57.70
2022-10-24T18:30:46.530Z,86.80
2022-10-24T18:35:46.799Z,81.90
2022-10-24T18:40:45.096Z,64.50
2022-10-24T18:45:44.374Z,55.80
2022-10-24T18:50:44.424Z,53.90
2022-10-24T18:55:42.560Z,37.70
2022-10-24T19:00:43.975Z,42.20
2022-10-24T19:05:40.934Z,35.20
2022-10-24T19:10:41.652Z,55.60
2022-10-24T19:15:41.609Z,52.80
2022-10-24T19:20:38.096Z,21.80
2022-10-24T19:25:38.391Z,41.50
2022-10-24T19:30:38.375Z,26.30
2022-10-24T19:35:38.620Z,27.40
2022-10-24T19:40:37.041Z,42.50
2022-10-24T19:45:45.719Z,27.90
2022-10-24T19:50:35.504Z,27.30
2022-10-24T19:55:35.594Z,26.50
2022-10-24T20:00:32.855Z,25.40
2022-10-24T20:05:32.270Z,36.70
2022-10-24T20:10:31.435Z,23.10
2022-10-24T20:15:31.547Z,25.60
2022-10-24T20:20:31.989Z,22.20
2022-10-24T20:25:29.101Z,17.80
2022-10-24T20:30:29.306Z,109.80
2022-10-24T20:35:29.525Z,154.60
2022-10-24T20:40:27.757Z,137.10
2022-10-24T20:45:28.239Z,100.20
2022-10-24T20:50:25.298Z,217.10
2022-10-24T20:55:39.399Z,225.10
2022-10-24T21:00:23.741Z,258.80
2022-10-24T21:05:22.965Z,328.10
2022-10-24T21:10:22.485Z,265.30
2022-10-24T21:15:23.155Z,225.00
2022-10-24T21:20:21.606Z,191.40
2022-10-24T21:25:19.815Z,175.70
2022-10-24T21:30:18.976Z,132.50
2022-10-24T21:35:18.168Z,161.30
2022-10-24T21:40:17.331Z,260.10
2022-10-24T21:45:17.541Z,215.50
2022-10-24T21:50:15.723Z,221.00
2022-10-24T21:55:14.915Z,328.00
2022-10-24T22:00:14.105Z,259.70
2022-10-24T22:05:13.303Z,205.70
2022-10-24T22:10:12.487Z,168.40
2022-10-24T22:15:11.677Z,171.50
2022-10-24T22:20:10.863Z,308.10
2022-10-24T22:25:11.062Z,246.10
2022-10-24T22:30:09.245Z,200.20
2022-10-24T22:35:09.458Z,181.50
2022-10-24T22:40:09.668Z,302.00
2022-10-24T22:45:06.872Z,129.50
2022-10-24T22:50:07.118Z,192.80
2022-10-24T22:55:08.163Z,140.60
2022-10-24T23:00:04.626Z,188.10
2022-10-24T23:05:03.814Z,179.40
2022-10-24T23:10:03.969Z,101.90
2022-10-24T23:15:02.131Z,103.20
2022-10-24T23:20:01.344Z,97.00
2022-10-24T23:25:00.528Z,73.10
2022-10-24T23:29:59.692Z,73.50
2022-10-24T23:34:58.867Z,64.40
2022-10-24T23:39:58.024Z,58.30
2022-10-24T23:44:58.192Z,79.90
2022-10-24T23:49:56.359Z,45.70
2022-10-24T23:54:55.529Z,56.80
2022-10-24T23:59:54.708Z,50.80
